Carson Sink, Nevada Weather observations

Data are for observation ending at time listed.
 Day   Time    Ave.   Ave.  Ave.  Vector   Max.   Stn.    Total    Solar   Ave.  
  of    of     Air    Rel.  Wind   Wind    Wind   Baro.  Precip.   Rad.    Soil  
Year   Day     Temp.  Hum.  Speed  Dir.    Gust   Pres.                    Temp. 
2015   (PST)    F      %     mph   deg.    mph     mb.     in.     W/m2     F   
------------------------------------------------------------------------------
 210    9:30   76.9    11    3.8   181      6.4   888.5    0.00     817     79.3
 210    9:40   77.7    11    2.9   175      5.6   888.4    0.00     838     79.6
 210    9:50   78.4    10    2.8   203      8.7   888.3    0.00     857     79.9
 210   10:00   79.6    10    2.7   180      6.1   888.3    0.00     873     80.3
 210   10:10   79.6    10    2.5   192      6.2   888.3    0.00     890     80.7
 210   10:20   80.1    10    2.9   203      7.3   888.2    0.00     904     81.1
 210   10:30   80.6    10    3.0   222      8.0   888.1    0.00     919     81.4
 210   10:40   81.4     9    2.8   218      6.9   888.1    0.00     929     81.9
 210   10:50   81.3     9    3.0   279      6.9   888.0    0.00     941     82.3
 210   11:00   82.5     9    2.9   178      5.9   887.9    0.00     949     82.8
 210   11:10   83.0     9    2.8   210      6.4   887.8    0.00     956     83.2
 210   11:20   82.9     9    2.0   349      4.7   887.8    0.00     962     83.7
 210   11:30   83.0     9    3.2    18      6.2   887.7    0.00     967     84.1
 210   11:40   83.6     9    4.5   344      6.5   887.6    0.00     969     84.6
 210   11:50   83.9     9    4.5     5      7.3   887.5    0.00     970     85.1
 210   12:00   84.6     8    3.2    65      7.7   887.5    0.00     970     85.6
 210   12:10   84.9     8    3.7   128      8.3   887.3    0.00     967     86.1
 210   12:20   85.4     8    4.3   335      9.6   887.2    0.00     963     86.5
 210   12:30   85.6     8    3.6   308      9.0   887.2    0.00     959     87.0
 210   12:40   86.6     8    3.6    63      6.6   887.1    0.00     952     87.5
 210   12:50   87.1     8    3.2    80      6.6   887.1    0.00     943     88.0
 210   13:00   87.7     8    4.3   359      8.9   886.9    0.00     932     88.4
 210   13:10   88.2     8    4.3   330      8.4   886.9    0.00     919     88.9
 210   13:20   88.4     8    3.7   272     10.3   886.8    0.00     907     89.4
 210   13:30   89.1     7    2.8   208      6.1   886.7    0.00     893     89.9
 210   13:40   88.6     7    4.9    64      9.1   886.6    0.00     879     90.2
 210   13:50   88.8     8    4.7    73      9.0   886.5    0.00     861     90.6
 210   14:00   90.3     8    5.2    16     14.5   886.4    0.00     843     91.0
 210   14:10   89.9     8    4.3   350     10.5   886.4    0.00     827     91.3
 210   14:20   90.0     8    5.6   346     10.2   886.2    0.00     805     91.7
 210   14:30   90.2     8    3.1   302      8.1   886.1    0.00     786     91.9
 210   14:40   91.4     8    2.9   354      6.8   886.0    0.00     759     92.1
 210   14:50   91.2     8    3.8     4      9.3   885.8    0.00     736     92.4
 210   15:00   91.2     8    3.8    58      6.6   885.6    0.00     710     92.5
 210   15:10   90.8     8    3.4    36      5.0   885.5    0.00     688     92.7
 210   15:20   91.5     8    3.7    59      7.7   885.4    0.00     665     92.9
 210   15:30   91.9     8    3.9   122      7.9   885.2    0.00     639     93.1
 210   15:40   91.5     8    4.9    71     11.8   885.1    0.00     611     93.3
 210   15:50   91.5     8    6.9    72     10.6   885.0    0.00     581     93.6
 210   16:00   91.9     8    3.9    44      7.7   885.0    0.00     550     93.8
 210   16:10   93.3     8    2.9   161      5.4   884.8    0.00     521     94.0
 210   16:20   92.9     8    3.5    11      9.1   884.8    0.00     492     94.2
 210   16:30   92.8     8    2.8   351      8.1   884.8    0.00     460     94.4
 210   16:40   92.6     8    3.7    14      9.3   884.7    0.00     428     94.6
 210   16:50   92.7     8    5.1     9     10.2   884.6    0.00     397     94.7
 210   17:00   92.5     8    2.8    56      5.2   884.6    0.00     365     94.8
 210   17:10   92.6     8    4.0    28      7.0   884.5    0.00     333     94.9
 210   17:20   93.6     8    3.1   315      8.0   884.5    0.00     304     95.0
 210   17:30   93.1     8    7.1   338     13.5   884.5    0.00     273     95.1
 210   17:40   92.5     8    5.3   350      8.6   884.5    0.00     241     95.1
 210   17:50   92.8     8    4.4   318     10.2   884.5    0.00     211     95.1
 210   18:00   92.5     8    6.2   339     10.0   884.5    0.00     182     95.1
 210   18:10   92.3     8    2.6    43      4.7   884.5    0.00     152     95.0
 210   18:20   92.2     8    6.2   349     11.2   884.5    0.00     123     94.9
 210   18:30   92.1     8    6.4   331      8.2   884.5    0.00      89     94.8
 210   18:40   91.8     8    4.8   352      6.7   884.6    0.00      56     94.7
 210   18:50   91.6     8    3.0     4      5.3   884.6    0.00      31     94.6
 210   19:00   91.3     8    4.1   351      6.8   884.6    0.00      15     94.4
 210   19:10   91.0     8    2.2   342      4.5   884.6    0.00       7     94.2
 210   19:20   90.0    10    2.8     3      4.4   884.6    0.00       3     94.1
 210   19:30   89.2    10    3.7     9      5.1   884.6    0.00       1     93.9
 210   19:40   89.0    10    3.7     9      4.2   884.6    0.00       0     93.6
 210   19:50   88.2    11    3.7     9      4.6   884.8    0.00       0     93.4
 210   20:00   87.4    12    3.2    11      4.2   884.9    0.00       0     93.2
 210   20:10   86.5    12    4.6    11      5.7   885.0    0.00       0     92.9
 210   20:20   83.9    14    5.5    23      6.8   885.1    0.00       0     92.7
 210   20:30   81.3    13    6.2    26      6.9   885.3    0.00       0     92.4
 210   20:40   80.7    13    6.7    31      8.9   885.4    0.00       0     92.1
 210   20:50   81.2    12    8.9    47     10.6   885.4    0.00       0     91.9
 210   21:00   81.1    12    8.6    59      9.9   885.4    0.00       0     91.6
 210   21:10   80.3    12    8.0    62      9.2   885.5    0.00       0     91.3
 210   21:20   80.0    12    8.8    56     11.0   885.6    0.00       0     91.1
 210   21:30   79.5    12    9.1    50     10.5   885.6    0.00       0     90.8
 210   21:40   78.8    13    8.2    40      9.3   885.7    0.00       0     90.6
 210   21:50   78.0    13    8.3    14     11.7   885.8    0.00       0     90.3
 210   22:00   78.2    13    9.2    30     11.2   885.8    0.00       0     90.1
 210   22:10   77.1    14    7.0    22      8.0   885.8    0.00       0     89.8
 210   22:20   76.5    14    7.1    28      8.3   885.8    0.00       0     89.5
 210   22:30   75.5    14    7.8    47      9.6   885.8    0.00       0     89.3
 210   22:40   75.5    14    9.5    52     10.7   885.7    0.00       0     89.0
 210   22:50   75.7    14    9.5    44     10.7   885.7    0.00       0     88.8
 210   23:00   76.0    13    9.9    48     11.4   885.7    0.00       0     88.6
 210   23:10   75.5    14    8.6    52      9.9   885.7    0.00       0     88.3
 210   23:20   74.0    14    8.3    39      9.6   885.8    0.00       0     88.1
 210   23:30   72.9    15    9.0    26     10.2   885.9    0.00       0     87.9
 210   23:40   73.2    14    9.2    17     11.0   885.9    0.00       0     87.6
 210   23:50   72.7    15    7.5    13      9.3   886.0    0.00       0     87.4
 211    0:00   72.0    16    6.4    18      7.2   886.1    0.00       0     87.2
 211    0:10   72.1    16    7.1    21      8.7   886.2    0.00       0     87.0
 211    0:20   73.0    15    8.6    18      9.9   886.2    0.00       0     86.8
 211    0:30   73.3    14    9.6    22     11.1   886.2    0.00       0     86.6
 211    0:40   73.2    14   10.5    23     13.5   886.1    0.00       0     86.3
 211    0:50   72.7    14   11.0    17     14.0   886.1    0.00       0     86.1
 211    1:00   71.7    15   10.4    11     12.2   886.1    0.00       0     85.9
 211    1:10   71.2    15   10.3    17     12.9   886.1    0.00       0     85.7
 211    1:20   71.3    15   11.1    26     12.6   886.1    0.00       0     85.5
 211    1:30   70.9    15   11.2    22     13.4   886.1    0.00       0     85.3
 211    1:40   70.8    15   11.4    22     13.2   886.2    0.00       0     85.1
 211    1:50   71.4    15   11.4    23     12.9   886.2    0.00       0     84.9
 211    2:00   70.4    16   10.2    17     11.6   886.2    0.00       0     84.8
 211    2:10   69.8    16    9.5    12     11.1   886.3    0.00       0     84.6
 211    2:20   68.9    17    8.2    21      9.7   886.3    0.00       0     84.4
 211    2:30   68.6    17   10.5    33     14.6   886.3    0.00       0     84.2
 211    2:40   68.0    17   12.1    40     15.1   886.3    0.00       0     84.1
 211    2:50   66.8    18   12.8    34     15.0   886.3    0.00       0     83.9
 211    3:00   66.5    18   12.7    30     15.3   886.3    0.00       0     83.7
 211    3:10   67.2    18   12.8    32     15.2   886.3    0.00       0     83.5
 211    3:20   67.5    17   13.5    31     15.9   886.4    0.00       0     83.4
 211    3:30   67.2    17   15.3    26     17.6   886.4    0.00       0     83.2
 211    3:40   66.7    18   14.3     9     18.0   886.5    0.00       0     83.0
 211    3:50   67.0    17   15.1     9     17.6   886.5    0.00       0     82.9
 211    4:00   67.1    17   14.5    13     16.8   886.6    0.00       0     82.7
 211    4:10   66.8    17   12.5    10     15.1   886.6    0.00       0     82.6
 211    4:20   66.6    18   11.8    16     13.6   886.8    0.00       0     82.4
 211    4:30   66.5    18   11.7    12     14.0   886.9    0.00       0     82.3
 211    4:40   66.7    18   11.9    15     13.7   887.1    0.00       1     82.1
 211    4:50   67.0    17   12.5    15     15.2   887.2    0.00       2     82.0
 211    5:00   66.7    17   12.0    22     15.3   887.4    0.00       7     81.8
 211    5:10   65.8    18    6.7    54     10.2   887.6    0.00      27     81.7
 211    5:20   65.5    18    4.1    61      7.1   887.8    0.00      55     81.5
 211    5:30   64.9    19    6.8    26      9.2   887.9    0.00      91     81.3
 211    5:40   64.7    19    9.0    14     10.8   888.0    0.00     124     81.2
 211    5:50   65.3    18   10.0    10     11.6   888.1    0.00     156     81.0
 211    6:00   65.6    19    9.2    24     11.0   888.3    0.00     189     80.9
 211    6:10   65.8    19   10.0    36     12.3   888.2    0.00     223     80.8
 211    6:20   66.1    20    8.4    53      9.9   888.4    0.00     255     80.7
 211    6:30   65.8    21    7.4    51      8.8   888.5    0.00     289     80.5
 211    6:40   66.5    21    6.3    49      7.8   888.6    0.00     322     80.4
 211    6:50   67.7    20    4.8    77      5.8   888.6    0.00     353     80.3
 211    7:00   68.8    20    4.4   105      5.8   888.7    0.00     386     80.3
 211    7:10   69.9    18    4.3   104      5.8   888.8    0.00     418     80.2
 211    7:20   70.9    17    4.0    86      5.8   888.8    0.00     450     80.2
 211    7:30   72.3    16    3.2    89      5.3   888.8    0.00     482     80.2
 211    7:40   73.8    15    2.3    90      3.2   888.8    0.00     512     80.2
 211    7:50   75.8    14    2.8    79      5.0   888.9    0.00     543     80.2
 211    8:00   77.7    12    5.2    44      7.5   888.8    0.00     575     80.3
 211    8:10   79.4    12    6.4    44      9.1   888.7    0.00     605     80.4
 211    8:20   80.1    11    5.3    63      7.8   888.6    0.00     632     80.5
 211    8:30   81.2    11    5.0    64      7.4   888.6    0.00     660     80.7
 211    8:40   81.9    11    4.4    66      7.7   888.6    0.00     687     80.9
 211    8:50   82.5    11    3.7    92      7.0   888.6    0.00     713     81.1
 211    9:00   83.4    10    2.3    66      4.5   888.5    0.00     739     81.3
 211    9:10   84.3    10    3.6    94      6.2   888.4    0.00     762     81.6
 211    9:20   84.6    10    2.2   142      4.4   888.4    0.00     784     81.9

Return to Carson Sink graphs page.


Western Regional Climate Center,wrcc@dri.edu